sensor_id;sensor_type;location;lat;lon;timestamp;temperature;humidity
20066;DHT22;10193;48.884;9.182;2022-12-10T00:02:06;4.40;69.70
20066;DHT22;10193;48.884;9.182;2022-12-10T00:04:34;4.40;70.60
20066;DHT22;10193;48.884;9.182;2022-12-10T00:07:01;4.40;69.70
20066;DHT22;10193;48.884;9.182;2022-12-10T00:09:28;4.40;69.80
20066;DHT22;10193;48.884;9.182;2022-12-10T00:11:54;4.40;69.70
20066;DHT22;10193;48.884;9.182;2022-12-10T00:14:21;4.50;69.80
20066;DHT22;10193;48.884;9.182;2022-12-10T00:16:48;4.40;69.70
20066;DHT22;10193;48.884;9.182;2022-12-10T00:19:14;4.50;69.70
20066;DHT22;10193;48.884;9.182;2022-12-10T00:21:43;4.40;69.60
20066;DHT22;10193;48.884;9.182;2022-12-10T00:24:10;4.40;69.60
20066;DHT22;10193;48.884;9.182;2022-12-10T00:26:37;4.40;69.60
20066;DHT22;10193;48.884;9.182;2022-12-10T00:29:06;4.40;69.50
20066;DHT22;10193;48.884;9.182;2022-12-10T00:31:35;4.40;69.60
20066;DHT22;10193;48.884;9.182;2022-12-10T00:34:07;4.40;69.60
20066;DHT22;10193;48.884;9.182;2022-12-10T00:36:36;4.40;69.60
20066;DHT22;10193;48.884;9.182;2022-12-10T00:39:05;4.40;69.50
20066;DHT22;10193;48.884;9.182;2022-12-10T00:41:32;4.40;69.50
20066;DHT22;10193;48.884;9.182;2022-12-10T00:43:58;4.40;69.70
20066;DHT22;10193;48.884;9.182;2022-12-10T00:46:25;4.40;69.60
20066;DHT22;10193;48.884;9.182;2022-12-10T00:48:52;4.40;69.50
20066;DHT22;10193;48.884;9.182;2022-12-10T00:51:20;4.40;69.50
20066;DHT22;10193;48.884;9.182;2022-12-10T00:53:48;4.40;69.50
20066;DHT22;10193;48.884;9.182;2022-12-10T00:56:19;4.40;69.60
20066;DHT22;10193;48.884;9.182;2022-12-10T00:58:47;4.40;69.60
20066;DHT22;10193;48.884;9.182;2022-12-10T01:01:16;4.40;69.60
20066;DHT22;10193;48.884;9.182;2022-12-10T01:03:44;4.40;69.60
20066;DHT22;10193;48.884;9.182;2022-12-10T01:06:13;4.40;69.50
20066;DHT22;10193;48.884;9.182;2022-12-10T01:08:40;4.40;69.60
20066;DHT22;10193;48.884;9.182;2022-12-10T01:11:08;4.40;69.60
20066;DHT22;10193;48.884;9.182;2022-12-10T01:13:36;4.40;69.60
20066;DHT22;10193;48.884;9.182;2022-12-10T01:16:03;4.30;69.40
20066;DHT22;10193;48.884;9.182;2022-12-10T01:18:31;4.30;69.50
20066;DHT22;10193;48.884;9.182;2022-12-10T01:21:01;4.30;69.40
20066;DHT22;10193;48.884;9.182;2022-12-10T01:23:28;4.30;69.50
20066;DHT22;10193;48.884;9.182;2022-12-10T01:25:59;4.30;69.40
20066;DHT22;10193;48.884;9.182;2022-12-10T01:28:27;4.30;69.50
20066;DHT22;10193;48.884;9.182;2022-12-10T01:30:55;4.30;69.50
20066;DHT22;10193;48.884;9.182;2022-12-10T01:33:22;4.30;69.40
20066;DHT22;10193;48.884;9.182;2022-12-10T01:35:49;4.20;69.30
20066;DHT22;10193;48.884;9.182;2022-12-10T01:38:15;4.20;69.30
20066;DHT22;10193;48.884;9.182;2022-12-10T01:40:42;4.20;69.30
20066;DHT22;10193;48.884;9.182;2022-12-10T01:43:11;4.20;69.30
20066;DHT22;10193;48.884;9.182;2022-12-10T01:45:39;4.20;69.40
20066;DHT22;10193;48.884;9.182;2022-12-10T01:48:07;4.20;69.30
20066;DHT22;10193;48.884;9.182;2022-12-10T01:50:34;4.20;69.30
20066;DHT22;10193;48.884;9.182;2022-12-10T01:53:01;4.20;69.40
20066;DHT22;10193;48.884;9.182;2022-12-10T01:55:45;4.30;69.60
20066;DHT22;10193;48.884;9.182;2022-12-10T01:58:14;4.20;69.50
20066;DHT22;10193;48.884;9.182;2022-12-10T02:00:47;4.20;69.60
20066;DHT22;10193;48.884;9.182;2022-12-10T02:03:21;4.20;69.70
20066;DHT22;10193;48.884;9.182;2022-12-10T02:05:55;4.20;69.70
20066;DHT22;10193;48.884;9.182;2022-12-10T02:08:27;4.20;69.70
20066;DHT22;10193;48.884;9.182;2022-12-10T02:11:02;4.20;69.60
20066;DHT22;10193;48.884;9.182;2022-12-10T02:13:36;4.20;69.60
20066;DHT22;10193;48.884;9.182;2022-12-10T02:16:09;4.20;69.60
20066;DHT22;10193;48.884;9.182;2022-12-10T02:18:43;4.20;69.50
20066;DHT22;10193;48.884;9.182;2022-12-10T02:21:14;4.20;69.50
20066;DHT22;10193;48.884;9.182;2022-12-10T02:23:46;4.20;69.50
20066;DHT22;10193;48.884;9.182;2022-12-10T02:26:20;4.30;69.60
20066;DHT22;10193;48.884;9.182;2022-12-10T02:28:53;4.20;69.50
20066;DHT22;10193;48.884;9.182;2022-12-10T02:31:26;4.20;69.50
20066;DHT22;10193;48.884;9.182;2022-12-10T02:33:56;4.20;69.50
20066;DHT22;10193;48.884;9.182;2022-12-10T02:36:26;4.20;69.50
20066;DHT22;10193;48.884;9.182;2022-12-10T02:38:56;4.20;69.50
20066;DHT22;10193;48.884;9.182;2022-12-10T02:41:28;4.20;69.50
20066;DHT22;10193;48.884;9.182;2022-12-10T02:43:57;4.20;69.40
20066;DHT22;10193;48.884;9.182;2022-12-10T02:46:28;4.20;69.40
20066;DHT22;10193;48.884;9.182;2022-12-10T02:48:55;4.20;69.40
20066;DHT22;10193;48.884;9.182;2022-12-10T02:51:23;4.20;69.40
20066;DHT22;10193;48.884;9.182;2022-12-10T02:53:58;4.20;69.30
20066;DHT22;10193;48.884;9.182;2022-12-10T02:56:30;4.20;69.30
20066;DHT22;10193;48.884;9.182;2022-12-10T02:59:08;4.20;69.20
20066;DHT22;10193;48.884;9.182;2022-12-10T03:01:46;4.20;69.20
20066;DHT22;10193;48.884;9.182;2022-12-10T03:04:21;4.20;69.00
20066;DHT22;10193;48.884;9.182;2022-12-10T03:06:53;4.20;69.00
20066;DHT22;10193;48.884;9.182;2022-12-10T03:09:23;4.20;68.90
20066;DHT22;10193;48.884;9.182;2022-12-10T03:11:58;4.10;68.80
20066;DHT22;10193;48.884;9.182;2022-12-10T03:14:28;4.10;68.70
20066;DHT22;10193;48.884;9.182;2022-12-10T03:16:59;4.10;68.60
20066;DHT22;10193;48.884;9.182;2022-12-10T03:19:29;4.10;68.50
20066;DHT22;10193;48.884;9.182;2022-12-10T03:21:58;4.00;69.20
20066;DHT22;10193;48.884;9.182;2022-12-10T03:24:27;4.00;68.50
20066;DHT22;10193;48.884;9.182;2022-12-10T03:26:54;3.90;68.50
20066;DHT22;10193;48.884;9.182;2022-12-10T03:29:26;3.90;68.70
20066;DHT22;10193;48.884;9.182;2022-12-10T03:31:54;3.90;68.90
20066;DHT22;10193;48.884;9.182;2022-12-10T03:34:23;3.90;69.00
20066;DHT22;10193;48.884;9.182;2022-12-10T03:36:50;3.80;69.00
20066;DHT22;10193;48.884;9.182;2022-12-10T03:39:17;3.90;69.20
20066;DHT22;10193;48.884;9.182;2022-12-10T03:41:44;3.90;69.30
20066;DHT22;10193;48.884;9.182;2022-12-10T03:44:11;3.90;69.50
20066;DHT22;10193;48.884;9.182;2022-12-10T03:46:38;3.90;69.50
20066;DHT22;10193;48.884;9.182;2022-12-10T03:49:05;3.90;69.30
20066;DHT22;10193;48.884;9.182;2022-12-10T03:51:33;3.90;69.20
20066;DHT22;10193;48.884;9.182;2022-12-10T03:54:00;3.90;69.10
20066;DHT22;10193;48.884;9.182;2022-12-10T03:56:26;3.90;69.00
20066;DHT22;10193;48.884;9.182;2022-12-10T03:58:53;3.90;69.00
20066;DHT22;10193;48.884;9.182;2022-12-10T04:01:20;3.80;69.00
20066;DHT22;10193;48.884;9.182;2022-12-10T04:03:46;3.80;68.90
20066;DHT22;10193;48.884;9.182;2022-12-10T04:06:15;3.80;68.90
20066;DHT22;10193;48.884;9.182;2022-12-10T04:08:43;3.80;69.00
20066;DHT22;10193;48.884;9.182;2022-12-10T04:11:11;3.80;69.00
20066;DHT22;10193;48.884;9.182;2022-12-10T04:13:39;3.80;69.10
20066;DHT22;10193;48.884;9.182;2022-12-10T04:16:24;3.70;69.20
20066;DHT22;10193;48.884;9.182;2022-12-10T04:18:55;3.70;69.30
20066;DHT22;10193;48.884;9.182;2022-12-10T04:21:21;3.70;69.40
20066;DHT22;10193;48.884;9.182;2022-12-10T04:24:08;3.70;69.50
20066;DHT22;10193;48.884;9.182;2022-12-10T04:26:53;3.70;69.50
20066;DHT22;10193;48.884;9.182;2022-12-10T04:29:21;3.70;69.40
20066;DHT22;10193;48.884;9.182;2022-12-10T04:31:48;3.80;69.50
20066;DHT22;10193;48.884;9.182;2022-12-10T04:34:14;3.70;69.40
20066;DHT22;10193;48.884;9.182;2022-12-10T04:36:41;3.70;69.50
20066;DHT22;10193;48.884;9.182;2022-12-10T04:39:09;3.70;69.40
20066;DHT22;10193;48.884;9.182;2022-12-10T04:41:37;3.70;69.50
20066;DHT22;10193;48.884;9.182;2022-12-10T04:44:05;3.70;69.50
20066;DHT22;10193;48.884;9.182;2022-12-10T04:46:31;3.70;69.50
20066;DHT22;10193;48.884;9.182;2022-12-10T04:48:58;3.70;69.50
20066;DHT22;10193;48.884;9.182;2022-12-10T04:51:25;3.70;69.40
20066;DHT22;10193;48.884;9.182;2022-12-10T04:53:52;3.70;69.40
20066;DHT22;10193;48.884;9.182;2022-12-10T04:56:20;3.70;69.40
20066;DHT22;10193;48.884;9.182;2022-12-10T04:58:46;3.70;69.50
20066;DHT22;10193;48.884;9.182;2022-12-10T05:01:13;3.60;69.50
20066;DHT22;10193;48.884;9.182;2022-12-10T05:03:40;3.60;69.60
20066;DHT22;10193;48.884;9.182;2022-12-10T05:06:09;3.60;69.60
20066;DHT22;10193;48.884;9.182;2022-12-10T05:08:36;3.60;69.60
20066;DHT22;10193;48.884;9.182;2022-12-10T05:11:05;3.60;69.60
20066;DHT22;10193;48.884;9.182;2022-12-10T05:13:33;3.60;69.60
20066;DHT22;10193;48.884;9.182;2022-12-10T05:16:01;3.60;69.60
20066;DHT22;10193;48.884;9.182;2022-12-10T05:18:28;3.60;69.60
20066;DHT22;10193;48.884;9.182;2022-12-10T05:20:54;3.60;69.60
20066;DHT22;10193;48.884;9.182;2022-12-10T05:23:24;3.50;69.60
20066;DHT22;10193;48.884;9.182;2022-12-10T05:26:00;3.50;69.60
20066;DHT22;10193;48.884;9.182;2022-12-10T05:28:27;3.50;69.60
20066;DHT22;10193;48.884;9.182;2022-12-10T05:30:56;3.50;69.60
20066;DHT22;10193;48.884;9.182;2022-12-10T05:33:23;3.50;69.60
20066;DHT22;10193;48.884;9.182;2022-12-10T05:35:54;3.50;69.80
20066;DHT22;10193;48.884;9.182;2022-12-10T05:38:21;3.40;69.60
20066;DHT22;10193;48.884;9.182;2022-12-10T05:40:49;3.50;69.80
20066;DHT22;10193;48.884;9.182;2022-12-10T05:43:16;3.40;69.70
20066;DHT22;10193;48.884;9.182;2022-12-10T05:45:43;3.50;69.90
20066;DHT22;10193;48.884;9.182;2022-12-10T05:48:12;3.40;69.80
20066;DHT22;10193;48.884;9.182;2022-12-10T05:50:39;3.40;69.80
20066;DHT22;10193;48.884;9.182;2022-12-10T05:53:06;3.40;69.80
20066;DHT22;10193;48.884;9.182;2022-12-10T05:55:33;3.40;69.90
20066;DHT22;10193;48.884;9.182;2022-12-10T05:58:00;3.40;69.90
20066;DHT22;10193;48.884;9.182;2022-12-10T06:00:27;3.40;70.00
20066;DHT22;10193;48.884;9.182;2022-12-10T06:02:54;3.40;70.00
20066;DHT22;10193;48.884;9.182;2022-12-10T06:05:22;3.40;70.00
20066;DHT22;10193;48.884;9.182;2022-12-10T06:07:49;3.40;70.00
20066;DHT22;10193;48.884;9.182;2022-12-10T06:10:16;3.40;70.00
20066;DHT22;10193;48.884;9.182;2022-12-10T06:12:42;3.30;69.80
20066;DHT22;10193;48.884;9.182;2022-12-10T06:15:10;3.40;69.90
20066;DHT22;10193;48.884;9.182;2022-12-10T06:17:36;3.30;70.60
20066;DHT22;10193;48.884;9.182;2022-12-10T06:20:04;3.30;69.90
20066;DHT22;10193;48.884;9.182;2022-12-10T06:22:33;3.30;69.90
20066;DHT22;10193;48.884;9.182;2022-12-10T06:24:59;3.20;69.80
20066;DHT22;10193;48.884;9.182;2022-12-10T06:27:26;3.30;70.10
20066;DHT22;10193;48.884;9.182;2022-12-10T06:29:55;3.20;70.00
20066;DHT22;10193;48.884;9.182;2022-12-10T06:32:22;3.20;70.00
20066;DHT22;10193;48.884;9.182;2022-12-10T06:34:48;3.30;70.20
20066;DHT22;10193;48.884;9.182;2022-12-10T06:37:15;3.20;70.10
20066;DHT22;10193;48.884;9.182;2022-12-10T06:39:43;3.20;70.20
20066;DHT22;10193;48.884;9.182;2022-12-10T06:42:10;3.20;70.20
20066;DHT22;10193;48.884;9.182;2022-12-10T06:44:36;3.20;70.20
20066;DHT22;10193;48.884;9.182;2022-12-10T06:47:03;3.20;70.20
20066;DHT22;10193;48.884;9.182;2022-12-10T06:49:30;3.20;70.20
20066;DHT22;10193;48.884;9.182;2022-12-10T06:51:56;3.20;70.20
20066;DHT22;10193;48.884;9.182;2022-12-10T06:54:23;3.30;71.00
20066;DHT22;10193;48.884;9.182;2022-12-10T06:56:51;3.30;70.30
20066;DHT22;10193;48.884;9.182;2022-12-10T06:59:18;3.20;70.20
20066;DHT22;10193;48.884;9.182;2022-12-10T07:01:45;3.20;70.30
20066;DHT22;10193;48.884;9.182;2022-12-10T07:04:13;3.30;70.30
20066;DHT22;10193;48.884;9.182;2022-12-10T07:06:40;3.30;70.30
20066;DHT22;10193;48.884;9.182;2022-12-10T07:09:06;3.20;70.30
20066;DHT22;10193;48.884;9.182;2022-12-10T07:11:35;3.20;70.20
20066;DHT22;10193;48.884;9.182;2022-12-10T07:14:03;3.20;70.30
20066;DHT22;10193;48.884;9.182;2022-12-10T07:16:31;3.20;70.20
20066;DHT22;10193;48.884;9.182;2022-12-10T07:19:00;3.20;70.30
20066;DHT22;10193;48.884;9.182;2022-12-10T07:21:28;3.30;70.30
20066;DHT22;10193;48.884;9.182;2022-12-10T07:23:57;3.20;70.20
20066;DHT22;10193;48.884;9.182;2022-12-10T07:26:25;3.30;70.40
20066;DHT22;10193;48.884;9.182;2022-12-10T07:28:51;3.30;70.40
20066;DHT22;10193;48.884;9.182;2022-12-10T07:31:20;3.30;70.30
20066;DHT22;10193;48.884;9.182;2022-12-10T07:33:47;3.30;70.40
20066;DHT22;10193;48.884;9.182;2022-12-10T07:36:14;3.20;70.20
20066;DHT22;10193;48.884;9.182;2022-12-10T07:38:41;3.30;70.40
20066;DHT22;10193;48.884;9.182;2022-12-10T07:41:09;3.30;70.40
20066;DHT22;10193;48.884;9.182;2022-12-10T07:43:38;3.30;70.50
20066;DHT22;10193;48.884;9.182;2022-12-10T07:46:06;3.30;70.50
20066;DHT22;10193;48.884;9.182;2022-12-10T07:48:38;3.30;70.40
20066;DHT22;10193;48.884;9.182;2022-12-10T07:51:06;3.30;70.40
20066;DHT22;10193;48.884;9.182;2022-12-10T07:53:32;3.40;70.50
20066;DHT22;10193;48.884;9.182;2022-12-10T07:55:59;3.40;70.50
20066;DHT22;10193;48.884;9.182;2022-12-10T07:58:26;3.40;70.40
20066;DHT22;10193;48.884;9.182;2022-12-10T08:00:53;3.30;70.40
20066;DHT22;10193;48.884;9.182;2022-12-10T08:03:19;3.40;70.40
20066;DHT22;10193;48.884;9.182;2022-12-10T08:05:47;3.40;70.40
20066;DHT22;10193;48.884;9.182;2022-12-10T08:08:14;3.40;70.40
20066;DHT22;10193;48.884;9.182;2022-12-10T08:10:41;3.40;70.40
20066;DHT22;10193;48.884;9.182;2022-12-10T08:13:08;3.30;70.30
20066;DHT22;10193;48.884;9.182;2022-12-10T08:15:35;3.40;70.50
20066;DHT22;10193;48.884;9.182;2022-12-10T08:18:01;3.40;70.50
20066;DHT22;10193;48.884;9.182;2022-12-10T08:20:28;3.40;70.60
20066;DHT22;10193;48.884;9.182;2022-12-10T08:22:56;3.40;70.70
20066;DHT22;10193;48.884;9.182;2022-12-10T08:25:22;3.40;70.70
20066;DHT22;10193;48.884;9.182;2022-12-10T08:27:49;3.40;70.70
20066;DHT22;10193;48.884;9.182;2022-12-10T08:30:16;3.50;70.70
20066;DHT22;10193;48.884;9.182;2022-12-10T08:32:42;3.50;70.70
20066;DHT22;10193;48.884;9.182;2022-12-10T08:35:09;3.50;70.70
20066;DHT22;10193;48.884;9.182;2022-12-10T08:37:36;3.50;70.50
20066;DHT22;10193;48.884;9.182;2022-12-10T08:40:05;3.50;70.50
20066;DHT22;10193;48.884;9.182;2022-12-10T08:42:32;3.50;70.50
20066;DHT22;10193;48.884;9.182;2022-12-10T08:44:58;3.50;70.50
20066;DHT22;10193;48.884;9.182;2022-12-10T08:47:27;3.50;70.60
20066;DHT22;10193;48.884;9.182;2022-12-10T08:49:53;3.50;70.50
20066;DHT22;10193;48.884;9.182;2022-12-10T08:52:20;3.60;70.60
20066;DHT22;10193;48.884;9.182;2022-12-10T08:54:47;3.60;70.60
20066;DHT22;10193;48.884;9.182;2022-12-10T08:57:15;3.60;70.60
20066;DHT22;10193;48.884;9.182;2022-12-10T08:59:42;3.60;70.60
20066;DHT22;10193;48.884;9.182;2022-12-10T09:02:10;3.60;70.60
20066;DHT22;10193;48.884;9.182;2022-12-10T09:04:37;3.60;70.60
20066;DHT22;10193;48.884;9.182;2022-12-10T09:07:05;3.60;70.60
20066;DHT22;10193;48.884;9.182;2022-12-10T09:09:35;3.60;70.60
20066;DHT22;10193;48.884;9.182;2022-12-10T09:12:02;3.70;70.70
20066;DHT22;10193;48.884;9.182;2022-12-10T09:14:30;3.70;70.70
20066;DHT22;10193;48.884;9.182;2022-12-10T09:16:56;3.70;70.70
20066;DHT22;10193;48.884;9.182;2022-12-10T09:19:23;3.70;70.70
20066;DHT22;10193;48.884;9.182;2022-12-10T09:21:50;3.80;70.80
20066;DHT22;10193;48.884;9.182;2022-12-10T09:24:16;3.80;70.70
20066;DHT22;10193;48.884;9.182;2022-12-10T09:26:43;3.80;70.60
20066;DHT22;10193;48.884;9.182;2022-12-10T09:29:09;3.80;70.40
20066;DHT22;10193;48.884;9.182;2022-12-10T09:31:37;3.80;70.30
20066;DHT22;10193;48.884;9.182;2022-12-10T09:34:04;3.80;70.40
20066;DHT22;10193;48.884;9.182;2022-12-10T09:36:31;3.90;70.60
20066;DHT22;10193;48.884;9.182;2022-12-10T09:38:57;3.90;70.50
20066;DHT22;10193;48.884;9.182;2022-12-10T09:44:31;3.90;70.40
20066;DHT22;10193;48.884;9.182;2022-12-10T09:47:06;4.00;70.50
20066;DHT22;10193;48.884;9.182;2022-12-10T09:49:42;4.00;70.30
20066;DHT22;10193;48.884;9.182;2022-12-10T09:52:13;4.00;70.20
20066;DHT22;10193;48.884;9.182;2022-12-10T09:54:45;4.00;70.20
20066;DHT22;10193;48.884;9.182;2022-12-10T09:57:19;4.00;70.00
20066;DHT22;10193;48.884;9.182;2022-12-10T09:59:49;4.00;69.90
20066;DHT22;10193;48.884;9.182;2022-12-10T10:02:22;4.00;70.00
20066;DHT22;10193;48.884;9.182;2022-12-10T10:04:51;4.00;70.10
20066;DHT22;10193;48.884;9.182;2022-12-10T10:07:23;4.00;70.20
20066;DHT22;10193;48.884;9.182;2022-12-10T10:09:51;4.10;70.30
20066;DHT22;10193;48.884;9.182;2022-12-10T10:12:21;4.10;70.10
20066;DHT22;10193;48.884;9.182;2022-12-10T10:14:47;4.10;70.10
20066;DHT22;10193;48.884;9.182;2022-12-10T10:17:21;4.10;70.10
20066;DHT22;10193;48.884;9.182;2022-12-10T10:19:49;4.20;70.20
20066;DHT22;10193;48.884;9.182;2022-12-10T10:22:16;4.20;70.30
20066;DHT22;10193;48.884;9.182;2022-12-10T10:24:44;4.20;70.20
20066;DHT22;10193;48.884;9.182;2022-12-10T10:27:14;4.20;70.30
20066;DHT22;10193;48.884;9.182;2022-12-10T10:29:42;4.30;70.40
20066;DHT22;10193;48.884;9.182;2022-12-10T10:32:15;4.30;70.40
20066;DHT22;10193;48.884;9.182;2022-12-10T10:34:46;4.30;70.30
20066;DHT22;10193;48.884;9.182;2022-12-10T10:37:16;4.40;70.30
20066;DHT22;10193;48.884;9.182;2022-12-10T10:39:48;4.40;70.50
20066;DHT22;10193;48.884;9.182;2022-12-10T10:42:26;4.40;70.70
20066;DHT22;10193;48.884;9.182;2022-12-10T10:44:53;4.50;70.70
20066;DHT22;10193;48.884;9.182;2022-12-10T10:47:26;4.50;70.50
20066;DHT22;10193;48.884;9.182;2022-12-10T10:49:54;4.50;70.20
20066;DHT22;10193;48.884;9.182;2022-12-10T10:52:22;4.60;70.30
20066;DHT22;10193;48.884;9.182;2022-12-10T10:54:49;4.60;70.20
20066;DHT22;10193;48.884;9.182;2022-12-10T10:57:19;4.60;70.10
20066;DHT22;10193;48.884;9.182;2022-12-10T10:59:49;4.60;70.00
20066;DHT22;10193;48.884;9.182;2022-12-10T11:02:20;4.70;69.90
20066;DHT22;10193;48.884;9.182;2022-12-10T11:04:49;4.70;69.90
20066;DHT22;10193;48.884;9.182;2022-12-10T11:07:23;4.70;69.90
20066;DHT22;10193;48.884;9.182;2022-12-10T11:09:52;4.70;69.90
20066;DHT22;10193;48.884;9.182;2022-12-10T11:12:29;4.70;69.90
20066;DHT22;10193;48.884;9.182;2022-12-10T11:14:56;4.70;69.60
20066;DHT22;10193;48.884;9.182;2022-12-10T11:17:24;4.70;69.70
20066;DHT22;10193;48.884;9.182;2022-12-10T11:19:57;4.70;69.90
20066;DHT22;10193;48.884;9.182;2022-12-10T11:22:28;4.70;69.90
20066;DHT22;10193;48.884;9.182;2022-12-10T11:24:55;4.70;69.70
20066;DHT22;10193;48.884;9.182;2022-12-10T11:27:33;4.70;69.60
20066;DHT22;10193;48.884;9.182;2022-12-10T11:30:05;4.70;69.90
20066;DHT22;10193;48.884;9.182;2022-12-10T11:32:51;4.80;69.90
20066;DHT22;10193;48.884;9.182;2022-12-10T11:35:32;4.80;69.60
20066;DHT22;10193;48.884;9.182;2022-12-10T11:38:09;4.80;69.60
20066;DHT22;10193;48.884;9.182;2022-12-10T11:40:45;4.80;69.60
20066;DHT22;10193;48.884;9.182;2022-12-10T11:43:37;4.80;69.60
20066;DHT22;10193;48.884;9.182;2022-12-10T11:46:16;4.80;70.00
20066;DHT22;10193;48.884;9.182;2022-12-10T11:48:59;4.90;70.40
20066;DHT22;10193;48.884;9.182;2022-12-10T11:51:35;4.90;70.70
20066;DHT22;10193;48.884;9.182;2022-12-10T11:54:20;5.00;70.30
20066;DHT22;10193;48.884;9.182;2022-12-10T11:56:57;5.00;70.10
20066;DHT22;10193;48.884;9.182;2022-12-10T11:59:33;5.10;69.80
20066;DHT22;10193;48.884;9.182;2022-12-10T12:02:22;5.10;69.60
20066;DHT22;10193;48.884;9.182;2022-12-10T12:05:07;5.10;69.30
20066;DHT22;10193;48.884;9.182;2022-12-10T12:07:46;5.20;69.00
20066;DHT22;10193;48.884;9.182;2022-12-10T12:10:39;5.20;68.90
20066;DHT22;10193;48.884;9.182;2022-12-10T12:13:12;5.10;68.40
20066;DHT22;10193;48.884;9.182;2022-12-10T12:15:43;5.10;68.50
20066;DHT22;10193;48.884;9.182;2022-12-10T12:18:17;5.10;68.60
20066;DHT22;10193;48.884;9.182;2022-12-10T12:20:48;5.10;68.40
20066;DHT22;10193;48.884;9.182;2022-12-10T12:23:19;5.10;68.70
20066;DHT22;10193;48.884;9.182;2022-12-10T12:25:52;5.10;68.80
20066;DHT22;10193;48.884;9.182;2022-12-10T12:28:24;5.10;69.20
20066;DHT22;10193;48.884;9.182;2022-12-10T12:30:59;5.10;68.70
20066;DHT22;10193;48.884;9.182;2022-12-10T12:33:32;5.10;68.50
20066;DHT22;10193;48.884;9.182;2022-12-10T12:36:05;5.10;68.60
20066;DHT22;10193;48.884;9.182;2022-12-10T12:38:41;5.00;68.50
20066;DHT22;10193;48.884;9.182;2022-12-10T12:41:15;5.10;68.40
20066;DHT22;10193;48.884;9.182;2022-12-10T12:43:47;5.00;68.40
20066;DHT22;10193;48.884;9.182;2022-12-10T12:46:19;5.00;68.10
20066;DHT22;10193;48.884;9.182;2022-12-10T12:48:53;5.00;68.20
20066;DHT22;10193;48.884;9.182;2022-12-10T12:51:24;5.00;68.20
20066;DHT22;10193;48.884;9.182;2022-12-10T12:53:53;5.00;68.40
20066;DHT22;10193;48.884;9.182;2022-12-10T12:56:27;5.00;68.40
20066;DHT22;10193;48.884;9.182;2022-12-10T12:59:04;5.00;68.10
20066;DHT22;10193;48.884;9.182;2022-12-10T13:01:36;5.00;68.30
20066;DHT22;10193;48.884;9.182;2022-12-10T13:04:06;5.00;68.30
20066;DHT22;10193;48.884;9.182;2022-12-10T13:06:35;5.00;68.40
20066;DHT22;10193;48.884;9.182;2022-12-10T13:09:24;5.00;68.40
20066;DHT22;10193;48.884;9.182;2022-12-10T13:12:28;5.00;68.30
20066;DHT22;10193;48.884;9.182;2022-12-10T13:15:03;5.00;67.90
20066;DHT22;10193;48.884;9.182;2022-12-10T13:17:32;5.00;68.10
20066;DHT22;10193;48.884;9.182;2022-12-10T13:20:25;5.10;68.30
20066;DHT22;10193;48.884;9.182;2022-12-10T13:22:55;5.00;67.90
20066;DHT22;10193;48.884;9.182;2022-12-10T13:25:41;5.10;68.30
20066;DHT22;10193;48.884;9.182;2022-12-10T13:28:28;5.10;67.90
20066;DHT22;10193;48.884;9.182;2022-12-10T13:31:32;5.00;67.90
20066;DHT22;10193;48.884;9.182;2022-12-10T13:34:22;5.00;67.50
20066;DHT22;10193;48.884;9.182;2022-12-10T13:37:17;5.00;67.70
20066;DHT22;10193;48.884;9.182;2022-12-10T13:39:53;5.00;67.70
20066;DHT22;10193;48.884;9.182;2022-12-10T13:42:32;5.00;68.00
20066;DHT22;10193;48.884;9.182;2022-12-10T13:45:30;5.00;67.80
20066;DHT22;10193;48.884;9.182;2022-12-10T13:48:26;5.00;67.80
20066;DHT22;10193;48.884;9.182;2022-12-10T13:51:18;5.00;67.70
20066;DHT22;10193;48.884;9.182;2022-12-10T13:53:59;5.00;67.80
20066;DHT22;10193;48.884;9.182;2022-12-10T13:56:29;4.90;67.70
20066;DHT22;10193;48.884;9.182;2022-12-10T13:59:09;4.90;67.80
20066;DHT22;10193;48.884;9.182;2022-12-10T14:01:50;4.90;67.80
20066;DHT22;10193;48.884;9.182;2022-12-10T14:04:46;4.90;67.90
20066;DHT22;10193;48.884;9.182;2022-12-10T14:07:15;4.90;67.80
20066;DHT22;10193;48.884;9.182;2022-12-10T14:09:47;4.80;67.80
20066;DHT22;10193;48.884;9.182;2022-12-10T14:12:17;4.80;67.80
20066;DHT22;10193;48.884;9.182;2022-12-10T14:14:46;4.80;67.70
20066;DHT22;10193;48.884;9.182;2022-12-10T14:17:17;4.60;67.40
20066;DHT22;10193;48.884;9.182;2022-12-10T14:19:46;4.70;67.60
20066;DHT22;10193;48.884;9.182;2022-12-10T14:22:18;4.60;67.50
20066;DHT22;10193;48.884;9.182;2022-12-10T14:24:48;4.60;67.60
20066;DHT22;10193;48.884;9.182;2022-12-10T14:27:18;4.50;67.60
20066;DHT22;10193;48.884;9.182;2022-12-10T14:29:46;4.50;67.70
20066;DHT22;10193;48.884;9.182;2022-12-10T14:32:16;4.50;67.80
20066;DHT22;10193;48.884;9.182;2022-12-10T14:34:47;4.40;67.90
20066;DHT22;10193;48.884;9.182;2022-12-10T14:37:18;4.40;67.90
20066;DHT22;10193;48.884;9.182;2022-12-10T14:39:47;4.40;68.00
20066;DHT22;10193;48.884;9.182;2022-12-10T14:42:16;4.40;68.10
20066;DHT22;10193;48.884;9.182;2022-12-10T14:44:44;4.40;68.20
20066;DHT22;10193;48.884;9.182;2022-12-10T14:47:15;4.40;68.20
20066;DHT22;10193;48.884;9.182;2022-12-10T14:49:44;4.40;68.10
20066;DHT22;10193;48.884;9.182;2022-12-10T14:52:13;4.30;67.90
20066;DHT22;10193;48.884;9.182;2022-12-10T14:54:41;4.30;67.80
20066;DHT22;10193;48.884;9.182;2022-12-10T14:57:13;4.30;67.90
20066;DHT22;10193;48.884;9.182;2022-12-10T14:59:43;4.20;67.80
20066;DHT22;10193;48.884;9.182;2022-12-10T15:02:18;4.20;67.80
20066;DHT22;10193;48.884;9.182;2022-12-10T15:04:48;4.20;67.90
20066;DHT22;10193;48.884;9.182;2022-12-10T15:07:18;4.20;67.90
20066;DHT22;10193;48.884;9.182;2022-12-10T15:09:46;4.20;68.00
20066;DHT22;10193;48.884;9.182;2022-12-10T15:12:31;4.20;68.00
20066;DHT22;10193;48.884;9.182;2022-12-10T15:15:05;4.10;67.80
20066;DHT22;10193;48.884;9.182;2022-12-10T15:17:38;4.10;67.80
20066;DHT22;10193;48.884;9.182;2022-12-10T15:20:19;4.10;68.00
20066;DHT22;10193;48.884;9.182;2022-12-10T15:22:46;4.00;68.00
20066;DHT22;10193;48.884;9.182;2022-12-10T15:25:20;4.00;68.10
20066;DHT22;10193;48.884;9.182;2022-12-10T15:27:56;4.00;68.10
20066;DHT22;10193;48.884;9.182;2022-12-10T15:30:32;4.00;68.10
20066;DHT22;10193;48.884;9.182;2022-12-10T15:33:00;4.00;68.20
20066;DHT22;10193;48.884;9.182;2022-12-10T15:35:27;4.00;68.20
20066;DHT22;10193;48.884;9.182;2022-12-10T15:37:55;4.00;68.20
20066;DHT22;10193;48.884;9.182;2022-12-10T15:40:26;4.00;68.20
20066;DHT22;10193;48.884;9.182;2022-12-10T15:42:56;4.00;68.10
20066;DHT22;10193;48.884;9.182;2022-12-10T15:45:27;4.00;68.00
20066;DHT22;10193;48.884;9.182;2022-12-10T15:48:08;4.00;68.00
20066;DHT22;10193;48.884;9.182;2022-12-10T15:50:35;3.90;67.80
20066;DHT22;10193;48.884;9.182;2022-12-10T15:53:02;3.90;67.70
20066;DHT22;10193;48.884;9.182;2022-12-10T15:55:29;3.90;67.70
20066;DHT22;10193;48.884;9.182;2022-12-10T15:57:57;3.80;67.50
20066;DHT22;10193;48.884;9.182;2022-12-10T16:00:26;3.80;67.50
20066;DHT22;10193;48.884;9.182;2022-12-10T16:02:54;3.80;67.40
20066;DHT22;10193;48.884;9.182;2022-12-10T16:05:25;3.80;67.40
20066;DHT22;10193;48.884;9.182;2022-12-10T16:07:53;3.70;67.20
20066;DHT22;10193;48.884;9.182;2022-12-10T16:10:22;3.70;67.30